Aviation Digital Data Service (ADDS)

Output produced by METARs form (2027 UTC 20 August 2019)
found at http://www.aviationweather.gov/metar/data/
 
Forecast for: GVNP (PRAIA INTL , CV)
Text: TAF GVNP 201700Z 2018/2124 01012KT 9999 SCT018
Forecast period: 1800 UTC 20 August 2019 to 0000 UTC 22 August 2019
Forecast type: FROM: standard forecast or significant change
Winds: from the N (10 degrees) at 14 MPH (12 knots; 6.2 m/s)
Visibility: 6 or more miles 10+ km)
Ceiling: at least 12,000 feet AGL
Clouds: scattered clouds at 1800 feet AGL
Weather: no significant weather forecast for this period
Text: TEMPO 2018/2022 VRB06KT FEW015 BKN020
Forecast period: 1800 to 2200 UTC 20 August 2019
Forecast type: TEMPORARY: The following changes expected for less than half the time period
Winds: variable direction winds at 7 MPH (6 knots; 3.1 m/s)
Visibility: missing
Ceiling: 2000 feet AGL
Clouds: few clouds at 1500 feet AGL
broken clouds at 2000 feet AGL
Weather: no significant weather forecast for this period